Terminal Aerodrome Forecast
Issued by NWS

Home | Current Version | Previous Version | Text Only | Print | Product List | Glossary On
Versions: 1 2 3 4 5 6 7 8 9 10 11 12 13 14 15 16 17 18 19 20
000
FTUS42 TJSJ 041739 AAA
TAFJSJ
TAF AMD
TJSJ 041739Z 0418/0518 06012KT P6SM VCTS SCT030CB BKN050
      TEMPO 0418/0420 4SM SHRA SCT020 BKN040
     FM042330 VRB05KT P6SM FEW025 SCT040
     FM051330 08010KT P6SM SCT030=

USA.gov is the U.S. government's official web portal to all federal, state and local government web resources and services.